YSS694U VNKT-VQPR
Flight info
| Callsign | YSS694U |
|---|---|
| Flight time | 0h 40m |
| Altitude | 35000 |
| Route | IGRIS1B KIMTI G348 SUBSU DCT TAKTI DCT PRO |
| Aircraft | L101/H-SDFHIW/S |
Departure
| Time | 2026-05-06 19:58 |
|---|---|
| Airport | Tribhuvan International Airport (VNKT) |
Arrival
| Time | 2026-05-06 20:39 |
|---|---|
| Airport | Paro International Airport (VQPR) |
| Time | Latitude | Longitude | Altitude | Speed | Heading |
|---|---|---|---|---|---|
| 2026-05-06 19:38 | 27.69991 | 85.35839 | 4379 ft | 0 kts | 292° |
| 2026-05-06 19:50 | 27.69986 | 85.35854 | 4367 ft | 3 kts | 292° |
| 2026-05-06 19:50 | 27.69978 | 85.35876 | 4362 ft | 3 kts | 292° |
| 2026-05-06 19:50 | 27.69971 | 85.35895 | 4371 ft | 3 kts | 297° |
| 2026-05-06 19:50 | 27.69960 | 85.35913 | 4358 ft | 3 kts | 322° |
| 2026-05-06 19:51 | 27.69944 | 85.35923 | 4357 ft | 3 kts | 356° |
| 2026-05-06 19:51 | 27.69930 | 85.35923 | 4361 ft | 1 kts | 15° |
| 2026-05-06 19:51 | 27.69929 | 85.35922 | 4361 ft | 1 kts | 15° |
| 2026-05-06 19:54 | 27.69932 | 85.35923 | 4378 ft | 1 kts | 15° |
| 2026-05-06 19:54 | 27.69962 | 85.35933 | 4361 ft | 8 kts | 17° |
| 2026-05-06 19:54 | 27.70028 | 85.35964 | 4362 ft | 13 kts | 23° |
| 2026-05-06 19:54 | 27.70130 | 85.36009 | 4365 ft | 18 kts | 21° |
| 2026-05-06 19:55 | 27.70256 | 85.36066 | 4382 ft | 21 kts | 22° |
| 2026-05-06 19:55 | 27.70398 | 85.36130 | 4391 ft | 23 kts | 22° |
| 2026-05-06 19:55 | 27.70532 | 85.36194 | 4395 ft | 11 kts | 30° |
| 2026-05-06 19:55 | 27.70554 | 85.36212 | 4395 ft | 0 kts | 41° |
| 2026-05-06 19:56 | 27.70555 | 85.36213 | 4396 ft | 1 kts | 41° |
| 2026-05-06 19:56 | 27.70569 | 85.36229 | 4396 ft | 4 kts | 54° |
| 2026-05-06 19:56 | 27.70592 | 85.36284 | 4398 ft | 11 kts | 68° |
| 2026-05-06 19:56 | 27.70589 | 85.36355 | 4398 ft | 6 kts | 140° |
| 2026-05-06 19:57 | 27.70572 | 85.36362 | 4398 ft | 3 kts | 172° |
| 2026-05-06 19:57 | 27.70559 | 85.36360 | 4398 ft | 2 kts | 197° |
| 2026-05-06 19:57 | 27.70525 | 85.36328 | 4397 ft | 10 kts | 219° |
| 2026-05-06 19:57 | 27.70490 | 85.36304 | 4397 ft | 10 kts | 209° |
| 2026-05-06 19:58 | 27.70156 | 85.36139 | 4382 ft | 97 kts | 202° |
| 2026-05-06 19:58 | 27.69273 | 85.35741 | 4390 ft | 170 kts | 201° |
| 2026-05-06 19:58 | 27.68220 | 85.35238 | 5447 ft | 164 kts | 203° |
| 2026-05-06 19:58 | 27.67272 | 85.34538 | 6494 ft | 169 kts | 226° |
| 2026-05-06 19:59 | 27.66808 | 85.33261 | 6949 ft | 191 kts | 265° |
| 2026-05-06 19:59 | 27.67159 | 85.31743 | 7129 ft | 223 kts | 302° |
| 2026-05-06 19:59 | 27.68411 | 85.30555 | 7446 ft | 244 kts | 339° |
| 2026-05-06 19:59 | 27.70153 | 85.30459 | 7768 ft | 270 kts | 15° |
| 2026-05-06 20:00 | 27.71839 | 85.31452 | 8400 ft | 281 kts | 44° |
| 2026-05-06 20:00 | 27.72870 | 85.33291 | 9459 ft | 278 kts | 74° |
| 2026-05-06 20:00 | 27.72990 | 85.35466 | 10163 ft | 293 kts | 103° |
| 2026-05-06 20:00 | 27.72042 | 85.37553 | 10742 ft | 308 kts | 130° |
| 2026-05-06 20:01 | 27.70590 | 85.39360 | 11494 ft | 317 kts | 134° |
| 2026-05-06 20:01 | 27.68990 | 85.41194 | 11685 ft | 342 kts | 135° |
| 2026-05-06 20:01 | 27.67222 | 85.43172 | 11697 ft | 373 kts | 135° |
| 2026-05-06 20:01 | 27.65342 | 85.45322 | 11800 ft | 394 kts | 131° |
| 2026-05-06 20:02 | 27.63858 | 85.47945 | 12266 ft | 402 kts | 112° |
| 2026-05-06 20:02 | 27.63133 | 85.50960 | 13295 ft | 393 kts | 100° |
| 2026-05-06 20:02 | 27.62707 | 85.53994 | 14281 ft | 393 kts | 99° |
| 2026-05-06 20:02 | 27.62167 | 85.57059 | 14752 ft | 408 kts | 103° |
| 2026-05-06 20:03 | 27.61426 | 85.60210 | 15235 ft | 420 kts | 106° |
| 2026-05-06 20:03 | 27.60606 | 85.63373 | 16218 ft | 417 kts | 106° |
| 2026-05-06 20:03 | 27.59994 | 85.66560 | 17253 ft | 418 kts | 97° |
| 2026-05-06 20:03 | 27.59848 | 85.69871 | 17847 ft | 429 kts | 91° |
| 2026-05-06 20:04 | 27.59739 | 85.73279 | 18429 ft | 438 kts | 95° |
| 2026-05-06 20:04 | 27.59415 | 85.76688 | 19306 ft | 438 kts | 99° |
| 2026-05-06 20:04 | 27.58897 | 85.80106 | 19916 ft | 447 kts | 102° |
| 2026-05-06 20:04 | 27.58254 | 85.83551 | 20660 ft | 452 kts | 104° |
| 2026-05-06 20:05 | 27.57563 | 85.87032 | 21402 ft | 458 kts | 104° |
| 2026-05-06 20:05 | 27.56865 | 85.90558 | 22167 ft | 465 kts | 104° |
| 2026-05-06 20:05 | 27.56167 | 85.94141 | 22976 ft | 470 kts | 105° |
| 2026-05-06 20:05 | 27.55466 | 85.97770 | 23702 ft | 478 kts | 105° |
| 2026-05-06 20:06 | 27.54759 | 86.01456 | 24349 ft | 484 kts | 105° |
| 2026-05-06 20:06 | 27.54046 | 86.05186 | 24970 ft | 491 kts | 105° |
| 2026-05-06 20:06 | 27.53321 | 86.08971 | 25580 ft | 497 kts | 105° |
| 2026-05-06 20:06 | 27.52587 | 86.12799 | 26207 ft | 503 kts | 105° |
| 2026-05-06 20:07 | 27.51853 | 86.16626 | 26810 ft | 510 kts | 105° |
| 2026-05-06 20:07 | 27.51106 | 86.20548 | 27477 ft | 515 kts | 105° |
| 2026-05-06 20:07 | 27.50306 | 86.24502 | 28086 ft | 519 kts | 110° |
| 2026-05-06 20:07 | 27.49115 | 86.28338 | 28656 ft | 520 kts | 117° |
| 2026-05-06 20:08 | 27.47641 | 86.32072 | 29233 ft | 524 kts | 119° |
| 2026-05-06 20:08 | 27.46186 | 86.35832 | 30133 ft | 525 kts | 117° |
| 2026-05-06 20:08 | 27.44812 | 86.39641 | 30782 ft | 527 kts | 117° |
| 2026-05-06 20:08 | 27.43447 | 86.43476 | 31401 ft | 528 kts | 117° |
| 2026-05-06 20:09 | 27.42042 | 86.47295 | 31914 ft | 530 kts | 118° |
| 2026-05-06 20:09 | 27.40589 | 86.51118 | 32462 ft | 532 kts | 119° |
| 2026-05-06 20:09 | 27.39121 | 86.54937 | 33076 ft | 533 kts | 119° |
| 2026-05-06 20:09 | 27.37646 | 86.58779 | 33610 ft | 535 kts | 120° |
| 2026-05-06 20:10 | 27.36161 | 86.62643 | 33797 ft | 540 kts | 120° |
| 2026-05-06 20:10 | 27.34666 | 86.66527 | 33962 ft | 541 kts | 120° |
| 2026-05-06 20:10 | 27.31681 | 86.74281 | 34041 ft | 540 kts | 120° |
| 2026-05-06 20:11 | 27.28689 | 86.82031 | 34009 ft | 540 kts | 120° |
| 2026-05-06 20:11 | 27.25692 | 86.89773 | 34015 ft | 540 kts | 120° |
| 2026-05-06 20:12 | 27.22690 | 86.97493 | 33997 ft | 540 kts | 120° |
| 2026-05-06 20:12 | 27.19674 | 87.05235 | 33986 ft | 541 kts | 120° |
| 2026-05-06 20:13 | 27.16659 | 87.12985 | 33980 ft | 542 kts | 120° |
| 2026-05-06 20:13 | 27.13633 | 87.20737 | 33951 ft | 542 kts | 120° |
| 2026-05-06 20:14 | 27.10597 | 87.28488 | 33973 ft | 544 kts | 120° |
| 2026-05-06 20:14 | 27.07550 | 87.36260 | 33957 ft | 544 kts | 120° |
| 2026-05-06 20:15 | 27.05018 | 87.42716 | 33955 ft | 544 kts | 120° |
| 2026-05-06 20:15 | 27.01969 | 87.50474 | 33962 ft | 543 kts | 120° |
| 2026-05-06 20:16 | 26.98916 | 87.58224 | 33957 ft | 543 kts | 120° |
| 2026-05-06 20:16 | 26.95862 | 87.65955 | 33934 ft | 543 kts | 120° |
| 2026-05-06 20:17 | 26.92798 | 87.73700 | 33934 ft | 543 kts | 121° |
| 2026-05-06 20:17 | 26.89728 | 87.81438 | 33931 ft | 543 kts | 121° |
| 2026-05-06 20:18 | 26.86668 | 87.89149 | 33937 ft | 542 kts | 121° |
| 2026-05-06 20:18 | 26.83593 | 87.96868 | 33899 ft | 543 kts | 121° |
| 2026-05-06 20:19 | 26.80520 | 88.04581 | 33895 ft | 543 kts | 121° |
| 2026-05-06 20:19 | 26.77444 | 88.12289 | 33888 ft | 543 kts | 121° |
| 2026-05-06 20:20 | 26.74371 | 88.19962 | 33884 ft | 544 kts | 121° |
| 2026-05-06 20:20 | 26.72867 | 88.23916 | 33783 ft | 550 kts | 115° |
| 2026-05-06 20:20 | 26.71954 | 88.28061 | 33044 ft | 560 kts | 100° |
| 2026-05-06 20:21 | 26.72000 | 88.32402 | 32297 ft | 559 kts | 83° |
| 2026-05-06 20:21 | 26.73005 | 88.36571 | 31629 ft | 552 kts | 70° |
| 2026-05-06 20:21 | 26.74589 | 88.40453 | 31056 ft | 547 kts | 64° |
| 2026-05-06 20:21 | 26.76359 | 88.44219 | 30480 ft | 549 kts | 63° |
| 2026-05-06 20:22 | 26.78183 | 88.47983 | 29847 ft | 551 kts | 63° |
| 2026-05-06 20:22 | 26.80041 | 88.51730 | 29143 ft | 551 kts | 62° |
| 2026-05-06 20:22 | 26.81948 | 88.55445 | 28456 ft | 550 kts | 61° |
| 2026-05-06 20:22 | 26.83876 | 88.59087 | 27792 ft | 537 kts | 60° |
| 2026-05-06 20:23 | 26.85782 | 88.62625 | 27147 ft | 524 kts | 60° |
| 2026-05-06 20:23 | 26.87655 | 88.66083 | 26598 ft | 515 kts | 60° |
| 2026-05-06 20:23 | 26.89500 | 88.69489 | 26012 ft | 508 kts | 60° |
| 2026-05-06 20:23 | 26.91321 | 88.72850 | 25453 ft | 502 kts | 60° |
| 2026-05-06 20:24 | 26.93126 | 88.76173 | 24897 ft | 496 kts | 60° |
| 2026-05-06 20:24 | 26.94907 | 88.79447 | 24362 ft | 490 kts | 60° |
| 2026-05-06 20:24 | 26.96627 | 88.82714 | 23844 ft | 482 kts | 65° |
| 2026-05-06 20:24 | 26.97783 | 88.86179 | 23232 ft | 469 kts | 82° |
| 2026-05-06 20:25 | 26.98248 | 88.89752 | 22679 ft | 459 kts | 88° |
| 2026-05-06 20:25 | 26.98633 | 88.93303 | 22163 ft | 459 kts | 85° |
| 2026-05-06 20:25 | 26.99169 | 88.96820 | 21650 ft | 456 kts | 82° |
| 2026-05-06 20:25 | 26.99754 | 89.00296 | 21121 ft | 451 kts | 83° |
| 2026-05-06 20:26 | 27.00264 | 89.03734 | 20592 ft | 444 kts | 84° |
| 2026-05-06 20:26 | 27.00683 | 89.07142 | 20088 ft | 439 kts | 85° |
| 2026-05-06 20:26 | 27.01052 | 89.10522 | 19605 ft | 434 kts | 85° |
| 2026-05-06 20:26 | 27.01409 | 89.13864 | 19136 ft | 429 kts | 85° |
| 2026-05-06 20:27 | 27.01767 | 89.17171 | 18652 ft | 425 kts | 84° |
| 2026-05-06 20:27 | 27.02125 | 89.20439 | 18199 ft | 421 kts | 84° |
| 2026-05-06 20:27 | 27.02475 | 89.23678 | 17674 ft | 416 kts | 84° |
| 2026-05-06 20:27 | 27.02816 | 89.26882 | 17184 ft | 412 kts | 84° |
| 2026-05-06 20:28 | 27.03151 | 89.30055 | 16702 ft | 407 kts | 84° |
| 2026-05-06 20:28 | 27.03477 | 89.33143 | 16405 ft | 389 kts | 84° |
| 2026-05-06 20:28 | 27.03786 | 89.36083 | 16137 ft | 371 kts | 84° |
| 2026-05-06 20:28 | 27.04080 | 89.38881 | 15965 ft | 352 kts | 84° |
| 2026-05-06 20:29 | 27.04355 | 89.41535 | 15897 ft | 333 kts | 84° |
| 2026-05-06 20:29 | 27.04695 | 89.44035 | 15845 ft | 318 kts | 74° |
| 2026-05-06 20:29 | 27.05659 | 89.46146 | 15952 ft | 290 kts | 51° |
| 2026-05-06 20:29 | 27.07008 | 89.47812 | 15889 ft | 293 kts | 45° |
| 2026-05-06 20:30 | 27.08645 | 89.49219 | 15501 ft | 298 kts | 28° |
| 2026-05-06 20:30 | 27.12509 | 89.50398 | 14803 ft | 277 kts | 4° |
| 2026-05-06 20:30 | 27.14394 | 89.50496 | 14494 ft | 267 kts | 0° |
| 2026-05-06 20:31 | 27.16239 | 89.50514 | 14082 ft | 263 kts | 359° |
| 2026-05-06 20:31 | 27.18054 | 89.50512 | 13724 ft | 257 kts | 0° |
| 2026-05-06 20:31 | 27.19793 | 89.50508 | 13532 ft | 244 kts | 0° |
| 2026-05-06 20:31 | 27.21441 | 89.50504 | 13439 ft | 229 kts | 0° |
| 2026-05-06 20:32 | 27.22995 | 89.50503 | 13416 ft | 221 kts | 0° |
| 2026-05-06 20:32 | 27.24547 | 89.50503 | 13453 ft | 225 kts | 0° |
| 2026-05-06 20:32 | 27.26116 | 89.50503 | 13443 ft | 226 kts | 0° |
| 2026-05-06 20:32 | 27.27670 | 89.50504 | 13419 ft | 226 kts | 0° |
| 2026-05-06 20:33 | 27.29245 | 89.50505 | 13417 ft | 226 kts | 0° |
| 2026-05-06 20:33 | 27.30782 | 89.50179 | 13366 ft | 227 kts | 336° |
| 2026-05-06 20:33 | 27.32113 | 89.49236 | 13321 ft | 229 kts | 321° |
| 2026-05-06 20:33 | 27.33368 | 89.48135 | 13133 ft | 229 kts | 325° |
| 2026-05-06 20:34 | 27.34715 | 89.47187 | 12900 ft | 227 kts | 329° |
| 2026-05-06 20:34 | 27.36055 | 89.46275 | 12764 ft | 224 kts | 328° |
| 2026-05-06 20:34 | 27.37360 | 89.45368 | 12615 ft | 214 kts | 328° |
| 2026-05-06 20:34 | 27.38591 | 89.44503 | 12415 ft | 205 kts | 328° |
| 2026-05-06 20:35 | 27.39790 | 89.43661 | 12109 ft | 201 kts | 328° |
| 2026-05-06 20:35 | 27.40937 | 89.42793 | 11848 ft | 195 kts | 319° |
| 2026-05-06 20:35 | 27.41677 | 89.41542 | 11673 ft | 190 kts | 291° |
| 2026-05-06 20:35 | 27.41983 | 89.40109 | 11225 ft | 188 kts | 279° |
| 2026-05-06 20:36 | 27.42151 | 89.38649 | 10805 ft | 184 kts | 277° |
| 2026-05-06 20:36 | 27.42380 | 89.37246 | 10428 ft | 183 kts | 283° |
| 2026-05-06 20:36 | 27.42799 | 89.35934 | 10122 ft | 171 kts | 303° |
| 2026-05-06 20:36 | 27.43762 | 89.35262 | 9665 ft | 166 kts | 360° |
| 2026-05-06 20:37 | 27.44774 | 89.35778 | 9323 ft | 171 kts | 59° |
| 2026-05-06 20:37 | 27.45012 | 89.37116 | 9204 ft | 178 kts | 99° |
| 2026-05-06 20:37 | 27.44661 | 89.38446 | 8696 ft | 176 kts | 108° |
| 2026-05-06 20:37 | 27.44250 | 89.39721 | 8277 ft | 172 kts | 113° |
| 2026-05-06 20:38 | 27.43456 | 89.40754 | 8072 ft | 176 kts | 141° |
| 2026-05-06 20:38 | 27.42427 | 89.41449 | 7752 ft | 173 kts | 155° |
| 2026-05-06 20:38 | 27.41300 | 89.41890 | 7417 ft | 168 kts | 157° |
| 2026-05-06 20:38 | 27.40339 | 89.42463 | 7323 ft | 132 kts | 151° |
| 2026-05-06 20:39 | 27.39776 | 89.42821 | 7316 ft | 62 kts | 150° |
| 2026-05-06 20:39 | 27.39505 | 89.42992 | 7313 ft | 30 kts | 153° |
| 2026-05-06 20:39 | 27.39424 | 89.42961 | 7315 ft | 9 kts | 280° |
| 2026-05-06 20:39 | 27.39461 | 89.42920 | 7318 ft | 8 kts | 332° |
| 2026-05-06 20:40 | 27.39515 | 89.42882 | 7318 ft | 11 kts | 329° |
| 2026-05-06 20:40 | 27.39588 | 89.42833 | 7320 ft | 14 kts | 329° |
| 2026-05-06 20:40 | 27.39683 | 89.42774 | 7321 ft | 17 kts | 332° |
| 2026-05-06 20:40 | 27.39798 | 89.42705 | 7321 ft | 20 kts | 331° |
| 2026-05-06 20:41 | 27.39925 | 89.42620 | 7321 ft | 22 kts | 330° |
| 2026-05-06 20:41 | 27.40059 | 89.42534 | 7321 ft | 22 kts | 331° |
| 2026-05-06 20:41 | 27.40193 | 89.42451 | 7322 ft | 22 kts | 331° |
| 2026-05-06 20:41 | 27.40324 | 89.42367 | 7324 ft | 21 kts | 329° |
| 2026-05-06 20:42 | 27.40448 | 89.42287 | 7326 ft | 17 kts | 331° |
| 2026-05-06 20:42 | 27.40549 | 89.42222 | 7327 ft | 17 kts | 329° |
| 2026-05-06 20:42 | 27.40634 | 89.42168 | 7328 ft | 9 kts | 332° |
| 2026-05-06 20:42 | 27.40648 | 89.42155 | 7328 ft | 0 kts | 310° |
| 2026-05-06 20:43 | 27.40650 | 89.42151 | 7328 ft | 2 kts | 301° |
| 2026-05-06 20:43 | 27.40654 | 89.42134 | 7328 ft | 2 kts | 275° |
| 2026-05-06 20:43 | 27.40696 | 89.42079 | 7325 ft | 15 kts | 356° |
| 2026-05-06 20:43 | 27.40730 | 89.42117 | 7328 ft | 3 kts | 90° |
| 2026-05-06 20:44 | 27.40721 | 89.42140 | 7329 ft | 3 kts | 131° |
| 2026-05-06 20:44 | 27.40675 | 89.42151 | 7327 ft | 9 kts | 191° |
| 2026-05-06 20:44 | 27.40639 | 89.42118 | 7325 ft | 2 kts | 243° |
| 2026-05-06 20:44 | 27.40636 | 89.42113 | 7325 ft | 0 kts | 239° |